SAS916 KJFK-EKCH
Flight info
| Callsign | SAS916 |
|---|---|
| Flight time | N/A |
| Altitude | 39000 |
| Route | MERIT DCT HFD DCT PUT DCT LBSTA DCT EBONY DCT VITUX DCT FROSS DCT MIGLI DCT RIKAL/M080F400 DCT 53N050W 55N040W 56N030W 56N020W DCT RESNO DCT NETKI/N0463F390 DCT NIBOG DCT MAC DCT SURAT DCT PETIL DCT TESPI |
| Aircraft | A333/H-SDE3GHIJ2J3J5M1RVWXY/LB2D1 |
Departure
| Time | 2026-05-08 09:50 |
|---|---|
| Airport | John F. Kennedy International Airport (KJFK) |
Arrival
| Time | N/A |
|---|---|
| Airport | Copenhagen Kastrup Airport (EKCH) |
| Time | Latitude | Longitude | Altitude | Speed | Heading |
|---|---|---|---|---|---|
| 2026-05-08 08:58 | 40.64285 | -73.79202 | 24 ft | 0 kts | 105° |
| 2026-05-08 09:33 | 40.64288 | -73.79214 | 28 ft | 3 kts | 105° |
| 2026-05-08 09:33 | 40.64293 | -73.79237 | 30 ft | 3 kts | 105° |
| 2026-05-08 09:33 | 40.64298 | -73.79262 | 29 ft | 3 kts | 105° |
| 2026-05-08 09:33 | 40.64303 | -73.79285 | 30 ft | 3 kts | 105° |
| 2026-05-08 09:34 | 40.64313 | -73.79309 | 30 ft | 3 kts | 153° |
| 2026-05-08 09:34 | 40.64330 | -73.79316 | 30 ft | 0 kts | 195° |
| 2026-05-08 09:38 | 40.64327 | -73.79317 | 30 ft | 0 kts | 195° |
| 2026-05-08 09:38 | 40.64313 | -73.79324 | 28 ft | 3 kts | 205° |
| 2026-05-08 09:38 | 40.64299 | -73.79335 | 25 ft | 4 kts | 211° |
| 2026-05-08 09:39 | 40.64276 | -73.79359 | 30 ft | 5 kts | 218° |
| 2026-05-08 09:39 | 40.64248 | -73.79392 | 30 ft | 6 kts | 224° |
| 2026-05-08 09:39 | 40.64221 | -73.79438 | 28 ft | 7 kts | 240° |
| 2026-05-08 09:39 | 40.64202 | -73.79500 | 28 ft | 8 kts | 251° |
| 2026-05-08 09:40 | 40.64183 | -73.79571 | 30 ft | 8 kts | 245° |
| 2026-05-08 09:40 | 40.64138 | -73.79607 | 27 ft | 8 kts | 186° |
| 2026-05-08 09:40 | 40.64079 | -73.79594 | 27 ft | 12 kts | 161° |
| 2026-05-08 09:40 | 40.64005 | -73.79534 | 29 ft | 13 kts | 134° |
| 2026-05-08 09:41 | 40.63952 | -73.79434 | 29 ft | 14 kts | 121° |
| 2026-05-08 09:41 | 40.63902 | -73.79323 | 27 ft | 15 kts | 121° |
| 2026-05-08 09:41 | 40.63849 | -73.79205 | 28 ft | 15 kts | 121° |
| 2026-05-08 09:41 | 40.63793 | -73.79086 | 30 ft | 16 kts | 122° |
| 2026-05-08 09:42 | 40.63738 | -73.78961 | 26 ft | 16 kts | 118° |
| 2026-05-08 09:42 | 40.63681 | -73.78839 | 29 ft | 15 kts | 123° |
| 2026-05-08 09:42 | 40.63626 | -73.78719 | 30 ft | 16 kts | 121° |
| 2026-05-08 09:42 | 40.63570 | -73.78594 | 31 ft | 16 kts | 121° |
| 2026-05-08 09:43 | 40.63512 | -73.78466 | 29 ft | 17 kts | 121° |
| 2026-05-08 09:43 | 40.63450 | -73.78329 | 30 ft | 18 kts | 121° |
| 2026-05-08 09:43 | 40.63387 | -73.78188 | 31 ft | 18 kts | 120° |
| 2026-05-08 09:43 | 40.63333 | -73.78035 | 28 ft | 18 kts | 101° |
| 2026-05-08 09:44 | 40.63349 | -73.77875 | 28 ft | 18 kts | 65° |
| 2026-05-08 09:44 | 40.63432 | -73.77766 | 28 ft | 17 kts | 32° |
| 2026-05-08 09:44 | 40.63536 | -73.77682 | 30 ft | 18 kts | 29° |
| 2026-05-08 09:44 | 40.63658 | -73.77590 | 28 ft | 21 kts | 31° |
| 2026-05-08 09:45 | 40.63785 | -73.77489 | 24 ft | 21 kts | 31° |
| 2026-05-08 09:45 | 40.63912 | -73.77394 | 28 ft | 21 kts | 28° |
| 2026-05-08 09:45 | 40.64034 | -73.77297 | 28 ft | 20 kts | 32° |
| 2026-05-08 09:45 | 40.64152 | -73.77203 | 29 ft | 19 kts | 32° |
| 2026-05-08 09:46 | 40.64268 | -73.77111 | 25 ft | 20 kts | 31° |
| 2026-05-08 09:46 | 40.64387 | -73.77022 | 28 ft | 20 kts | 26° |
| 2026-05-08 09:46 | 40.64519 | -73.76984 | 26 ft | 19 kts | 2° |
| 2026-05-08 09:46 | 40.64570 | -73.76958 | 27 ft | 0 kts | 36° |
| 2026-05-08 09:47 | 40.64599 | -73.76927 | 28 ft | 8 kts | 38° |
| 2026-05-08 09:47 | 40.64643 | -73.76863 | 28 ft | 12 kts | 66° |
| 2026-05-08 09:48 | 40.64621 | -73.76758 | 28 ft | 13 kts | 121° |
| 2026-05-08 09:48 | 40.64558 | -73.76616 | 27 ft | 20 kts | 121° |
| 2026-05-08 09:48 | 40.64501 | -73.76490 | 25 ft | 9 kts | 119° |
| 2026-05-08 09:48 | 40.64513 | -73.76424 | 28 ft | 8 kts | 44° |
| 2026-05-08 09:49 | 40.64559 | -73.76406 | 27 ft | 7 kts | 355° |
| 2026-05-08 09:49 | 40.64622 | -73.76476 | 28 ft | 24 kts | 303° |
| 2026-05-08 09:49 | 40.64808 | -73.76881 | 31 ft | 81 kts | 300° |
| 2026-05-08 09:49 | 40.65192 | -73.77739 | 28 ft | 135 kts | 300° |
| 2026-05-08 09:50 | 40.65721 | -73.78932 | 380 ft | 154 kts | 300° |
| 2026-05-08 09:50 | 40.66222 | -73.80132 | 1174 ft | 148 kts | 293° |
| 2026-05-08 09:50 | 40.66179 | -73.81487 | 1561 ft | 160 kts | 241° |
| 2026-05-08 09:50 | 40.65186 | -73.82217 | 1695 ft | 180 kts | 187° |
| 2026-05-08 09:51 | 40.63932 | -73.82658 | 1903 ft | 196 kts | 207° |
| 2026-05-08 09:51 | 40.62807 | -73.83818 | 2067 ft | 218 kts | 228° |
| 2026-05-08 09:51 | 40.61813 | -73.85417 | 2422 ft | 230 kts | 235° |
| 2026-05-08 09:51 | 40.60836 | -73.87063 | 3212 ft | 224 kts | 233° |
| 2026-05-08 09:52 | 40.59698 | -73.88423 | 4058 ft | 224 kts | 208° |
| 2026-05-08 09:52 | 40.58137 | -73.88586 | 4674 ft | 241 kts | 169° |
| 2026-05-08 09:52 | 40.56514 | -73.87717 | 4989 ft | 263 kts | 149° |
| 2026-05-08 09:52 | 40.55041 | -73.86168 | 5308 ft | 280 kts | 133° |
| 2026-05-08 09:53 | 40.54122 | -73.83900 | 5802 ft | 288 kts | 101° |
| 2026-05-08 09:53 | 40.54245 | -73.81309 | 6359 ft | 287 kts | 66° |
| 2026-05-08 09:53 | 40.55342 | -73.79181 | 6908 ft | 282 kts | 39° |
| 2026-05-08 09:53 | 40.56920 | -73.77670 | 7485 ft | 280 kts | 25° |
| 2026-05-08 09:54 | 40.58652 | -73.76495 | 8104 ft | 281 kts | 20° |
| 2026-05-08 09:54 | 40.60436 | -73.75411 | 8727 ft | 283 kts | 19° |
| 2026-05-08 09:54 | 40.62228 | -73.74291 | 9371 ft | 287 kts | 21° |
| 2026-05-08 09:54 | 40.64015 | -73.73085 | 9955 ft | 291 kts | 22° |
| 2026-05-08 09:55 | 40.65813 | -73.71785 | 10330 ft | 302 kts | 24° |
| 2026-05-08 09:55 | 40.67688 | -73.70363 | 10554 ft | 318 kts | 25° |
| 2026-05-08 09:55 | 40.69633 | -73.68842 | 10771 ft | 333 kts | 25° |
| 2026-05-08 09:55 | 40.71659 | -73.67231 | 10987 ft | 347 kts | 26° |
| 2026-05-08 09:56 | 40.73759 | -73.65549 | 11250 ft | 359 kts | 26° |
| 2026-05-08 09:56 | 40.75911 | -73.63822 | 11599 ft | 367 kts | 26° |
| 2026-05-08 09:56 | 40.78111 | -73.62057 | 12055 ft | 371 kts | 26° |
| 2026-05-08 09:56 | 40.80319 | -73.60288 | 12593 ft | 373 kts | 26° |
| 2026-05-08 09:57 | 40.84770 | -73.56728 | 13766 ft | 375 kts | 25° |
| 2026-05-08 09:57 | 40.87007 | -73.54945 | 14190 ft | 379 kts | 25° |
| 2026-05-08 09:57 | 40.89277 | -73.53135 | 14578 ft | 383 kts | 25° |
| 2026-05-08 09:58 | 40.91573 | -73.51306 | 14983 ft | 387 kts | 25° |
| 2026-05-08 09:58 | 40.93890 | -73.49457 | 15398 ft | 390 kts | 24° |
| 2026-05-08 09:58 | 40.96219 | -73.47596 | 15813 ft | 394 kts | 24° |
| 2026-05-08 09:58 | 40.98575 | -73.45712 | 16225 ft | 397 kts | 24° |
| 2026-05-08 09:59 | 41.00952 | -73.43808 | 16637 ft | 400 kts | 24° |
| 2026-05-08 09:59 | 41.03342 | -73.41892 | 17028 ft | 404 kts | 24° |
| 2026-05-08 09:59 | 41.05752 | -73.39958 | 17410 ft | 407 kts | 24° |
| 2026-05-08 09:59 | 41.08186 | -73.38005 | 17798 ft | 410 kts | 24° |
| 2026-05-08 10:00 | 41.10639 | -73.36033 | 18169 ft | 414 kts | 24° |
| 2026-05-08 10:00 | 41.13108 | -73.34047 | 18512 ft | 417 kts | 24° |
| 2026-05-08 10:00 | 41.15595 | -73.32044 | 18822 ft | 419 kts | 24° |
| 2026-05-08 10:00 | 41.18097 | -73.30027 | 19164 ft | 422 kts | 24° |
| 2026-05-08 10:01 | 41.20621 | -73.27992 | 19476 ft | 426 kts | 24° |
| 2026-05-08 10:01 | 41.23154 | -73.25947 | 19792 ft | 428 kts | 24° |
| 2026-05-08 10:01 | 41.25701 | -73.23888 | 20102 ft | 431 kts | 24° |
| 2026-05-08 10:01 | 41.28274 | -73.21806 | 20424 ft | 433 kts | 24° |
| 2026-05-08 10:02 | 41.30852 | -73.19719 | 20732 ft | 436 kts | 24° |
| 2026-05-08 10:02 | 41.33444 | -73.17619 | 21019 ft | 438 kts | 23° |
| 2026-05-08 10:02 | 41.36009 | -73.15357 | 21329 ft | 447 kts | 30° |
| 2026-05-08 10:02 | 41.38317 | -73.12495 | 21707 ft | 458 kts | 43° |
| 2026-05-08 10:03 | 41.40261 | -73.09089 | 22052 ft | 465 kts | 50° |
| 2026-05-08 10:03 | 41.42043 | -73.05464 | 22313 ft | 471 kts | 53° |
| 2026-05-08 10:03 | 41.43713 | -73.01752 | 22609 ft | 475 kts | 55° |
| 2026-05-08 10:03 | 41.45363 | -72.97924 | 22896 ft | 478 kts | 56° |
| 2026-05-08 10:04 | 41.47028 | -72.94018 | 23158 ft | 481 kts | 56° |
| 2026-05-08 10:04 | 41.48679 | -72.90164 | 23257 ft | 488 kts | 56° |
| 2026-05-08 10:04 | 41.50373 | -72.86241 | 23516 ft | 490 kts | 55° |
| 2026-05-08 10:04 | 41.52088 | -72.82296 | 23765 ft | 492 kts | 55° |
| 2026-05-08 10:05 | 41.53817 | -72.78335 | 24015 ft | 494 kts | 55° |
| 2026-05-08 10:05 | 41.55550 | -72.74375 | 24265 ft | 496 kts | 55° |
| 2026-05-08 10:05 | 41.57296 | -72.70387 | 24497 ft | 499 kts | 54° |
| 2026-05-08 10:05 | 41.59052 | -72.66373 | 24725 ft | 501 kts | 54° |
| 2026-05-08 10:06 | 41.60816 | -72.62336 | 24975 ft | 503 kts | 54° |
| 2026-05-08 10:06 | 41.62582 | -72.58287 | 25138 ft | 507 kts | 55° |
| 2026-05-08 10:06 | 41.64368 | -72.54202 | 25310 ft | 511 kts | 54° |
| 2026-05-08 10:06 | 41.66188 | -72.50111 | 25553 ft | 513 kts | 54° |
| 2026-05-08 10:07 | 41.68028 | -72.46026 | 25899 ft | 513 kts | 54° |
| 2026-05-08 10:07 | 41.69878 | -72.41934 | 26190 ft | 514 kts | 54° |
| 2026-05-08 10:07 | 41.71730 | -72.37841 | 26415 ft | 516 kts | 54° |
| 2026-05-08 10:07 | 41.73592 | -72.33715 | 26644 ft | 519 kts | 54° |
| 2026-05-08 10:08 | 41.75462 | -72.29563 | 26870 ft | 521 kts | 54° |
| 2026-05-08 10:08 | 41.77328 | -72.25406 | 27091 ft | 523 kts | 54° |
| 2026-05-08 10:08 | 41.79214 | -72.21195 | 27247 ft | 527 kts | 54° |
| 2026-05-08 10:08 | 41.81099 | -72.16978 | 27471 ft | 530 kts | 54° |
| 2026-05-08 10:09 | 41.82996 | -72.12725 | 27812 ft | 531 kts | 54° |
| 2026-05-08 10:09 | 41.84907 | -72.08431 | 28186 ft | 530 kts | 54° |
| 2026-05-08 10:09 | 41.86774 | -72.04234 | 28419 ft | 532 kts | 54° |
| 2026-05-08 10:09 | 41.88674 | -71.99959 | 28625 ft | 535 kts | 54° |
| 2026-05-08 10:10 | 41.90607 | -71.95604 | 28834 ft | 537 kts | 54° |
| 2026-05-08 10:10 | 41.92497 | -71.91341 | 29056 ft | 539 kts | 54° |
| 2026-05-08 10:10 | 41.94440 | -71.87018 | 29165 ft | 542 kts | 51° |
| 2026-05-08 10:10 | 41.96725 | -71.83012 | 29334 ft | 538 kts | 43° |
| 2026-05-08 10:11 | 41.99190 | -71.79238 | 29762 ft | 536 kts | 43° |
| 2026-05-08 10:11 | 42.01701 | -71.75539 | 30054 ft | 536 kts | 41° |
| 2026-05-08 10:11 | 42.04252 | -71.71870 | 30226 ft | 538 kts | 41° |
| 2026-05-08 10:11 | 42.06826 | -71.68204 | 30389 ft | 540 kts | 41° |
| 2026-05-08 10:12 | 42.09407 | -71.64533 | 30582 ft | 541 kts | 41° |
| 2026-05-08 10:12 | 42.11999 | -71.60837 | 30850 ft | 541 kts | 41° |
| 2026-05-08 10:12 | 42.14573 | -71.57149 | 31209 ft | 540 kts | 42° |
| 2026-05-08 10:12 | 42.17139 | -71.53461 | 31430 ft | 540 kts | 42° |
| 2026-05-08 10:13 | 42.19711 | -71.49756 | 31537 ft | 544 kts | 42° |
| 2026-05-08 10:13 | 42.22292 | -71.46028 | 31774 ft | 544 kts | 43° |
| 2026-05-08 10:13 | 42.24876 | -71.42289 | 32069 ft | 543 kts | 43° |
| 2026-05-08 10:13 | 42.27448 | -71.38561 | 32346 ft | 543 kts | 43° |
| 2026-05-08 10:14 | 42.30028 | -71.34818 | 32682 ft | 543 kts | 43° |
| 2026-05-08 10:14 | 42.32585 | -71.31101 | 33138 ft | 538 kts | 43° |
| 2026-05-08 10:14 | 42.35130 | -71.27398 | 33480 ft | 537 kts | 43° |
| 2026-05-08 10:14 | 42.37671 | -71.23699 | 33732 ft | 538 kts | 43° |
| 2026-05-08 10:15 | 42.40222 | -71.19982 | 33947 ft | 539 kts | 44° |
| 2026-05-08 10:15 | 42.42770 | -71.16265 | 34172 ft | 539 kts | 43° |
| 2026-05-08 10:15 | 42.45314 | -71.12548 | 34418 ft | 539 kts | 44° |
| 2026-05-08 10:15 | 42.47859 | -71.08824 | 34739 ft | 537 kts | 44° |
| 2026-05-08 10:16 | 42.50396 | -71.05105 | 34987 ft | 536 kts | 44° |
| 2026-05-08 10:16 | 42.52931 | -71.01387 | 35172 ft | 537 kts | 43° |
| 2026-05-08 10:16 | 42.55468 | -70.97661 | 35373 ft | 538 kts | 43° |
| 2026-05-08 10:16 | 42.58003 | -70.93933 | 35549 ft | 538 kts | 43° |
| 2026-05-08 10:17 | 42.60513 | -70.90236 | 35743 ft | 539 kts | 43° |
| 2026-05-08 10:17 | 42.63080 | -70.86451 | 35975 ft | 538 kts | 44° |
| 2026-05-08 10:17 | 42.65618 | -70.82704 | 36122 ft | 540 kts | 44° |
| 2026-05-08 10:17 | 42.68130 | -70.78990 | 36273 ft | 541 kts | 44° |
| 2026-05-08 10:18 | 42.70705 | -70.75178 | 36466 ft | 541 kts | 44° |
| 2026-05-08 10:18 | 42.73214 | -70.71459 | 36652 ft | 541 kts | 44° |
| 2026-05-08 10:18 | 42.75758 | -70.67683 | 36831 ft | 541 kts | 44° |
| 2026-05-08 10:18 | 42.78295 | -70.63913 | 37094 ft | 540 kts | 44° |
| 2026-05-08 10:19 | 42.80823 | -70.60128 | 37295 ft | 540 kts | 44° |
| 2026-05-08 10:19 | 42.83323 | -70.56299 | 37470 ft | 541 kts | 45° |
| 2026-05-08 10:19 | 42.85806 | -70.52442 | 37579 ft | 541 kts | 45° |
| 2026-05-08 10:20 | 42.90749 | -70.44704 | 37921 ft | 542 kts | 45° |
| 2026-05-08 10:20 | 42.93222 | -70.40829 | 38160 ft | 541 kts | 45° |
| 2026-05-08 10:20 | 42.95686 | -70.36968 | 38383 ft | 539 kts | 45° |
| 2026-05-08 10:20 | 42.98155 | -70.33100 | 38556 ft | 539 kts | 45° |
| 2026-05-08 10:21 | 43.00614 | -70.29248 | 38656 ft | 539 kts | 45° |
| 2026-05-08 10:21 | 43.03076 | -70.25388 | 38783 ft | 539 kts | 45° |
| 2026-05-08 10:21 | 43.05539 | -70.21521 | 38861 ft | 540 kts | 45° |
| 2026-05-08 10:22 | 43.09634 | -70.15083 | 38855 ft | 538 kts | 46° |
| 2026-05-08 10:22 | 43.14530 | -70.07362 | 38864 ft | 536 kts | 46° |
| 2026-05-08 10:23 | 43.19410 | -69.99647 | 38867 ft | 536 kts | 46° |
| 2026-05-08 10:23 | 43.24289 | -69.91914 | 38862 ft | 536 kts | 46° |
| 2026-05-08 10:24 | 43.29159 | -69.84175 | 38859 ft | 535 kts | 47° |
| 2026-05-08 10:24 | 43.34023 | -69.76424 | 38856 ft | 535 kts | 47° |
| 2026-05-08 10:25 | 43.38875 | -69.68671 | 38858 ft | 536 kts | 47° |
| 2026-05-08 10:25 | 43.43733 | -69.60888 | 38856 ft | 536 kts | 47° |
| 2026-05-08 10:26 | 43.48581 | -69.53100 | 38850 ft | 536 kts | 48° |
| 2026-05-08 10:26 | 43.53422 | -69.45303 | 38849 ft | 535 kts | 48° |
| 2026-05-08 10:27 | 43.58256 | -69.37494 | 38842 ft | 534 kts | 48° |
| 2026-05-08 10:27 | 43.63074 | -69.29692 | 38840 ft | 534 kts | 48° |
| 2026-05-08 10:28 | 43.67881 | -69.21884 | 38842 ft | 534 kts | 48° |
| 2026-05-08 10:28 | 43.72693 | -69.14050 | 38839 ft | 534 kts | 48° |
| 2026-05-08 10:29 | 43.77497 | -69.06206 | 38836 ft | 534 kts | 48° |
| 2026-05-08 10:29 | 43.82301 | -68.98341 | 38832 ft | 535 kts | 49° |
| 2026-05-08 10:30 | 43.87111 | -68.90445 | 38828 ft | 538 kts | 49° |
| 2026-05-08 10:30 | 43.91935 | -68.82504 | 38828 ft | 538 kts | 49° |
| 2026-05-08 10:31 | 43.96756 | -68.74545 | 38836 ft | 538 kts | 49° |
| 2026-05-08 10:31 | 44.01566 | -68.66583 | 38823 ft | 538 kts | 49° |
| 2026-05-08 10:32 | 44.06366 | -68.58614 | 38820 ft | 538 kts | 49° |
| 2026-05-08 10:32 | 44.11170 | -68.50618 | 38832 ft | 538 kts | 50° |
| 2026-05-08 10:33 | 44.15952 | -68.42636 | 38818 ft | 537 kts | 50° |
| 2026-05-08 10:33 | 44.20729 | -68.34638 | 38810 ft | 537 kts | 50° |
| 2026-05-08 10:34 | 44.25509 | -68.26615 | 38772 ft | 537 kts | 50° |
| 2026-05-08 10:34 | 44.30287 | -68.18572 | 38804 ft | 540 kts | 50° |
| 2026-05-08 10:35 | 44.35080 | -68.10483 | 38800 ft | 541 kts | 50° |
| 2026-05-08 10:35 | 44.39869 | -68.02375 | 38797 ft | 541 kts | 50° |
| 2026-05-08 10:36 | 44.44625 | -67.94303 | 38796 ft | 541 kts | 51° |
| 2026-05-08 10:36 | 44.49406 | -67.86163 | 38791 ft | 541 kts | 51° |
| 2026-05-08 10:37 | 44.54181 | -67.78010 | 38789 ft | 541 kts | 51° |
| 2026-05-08 10:37 | 44.58959 | -67.69830 | 38781 ft | 541 kts | 51° |
| 2026-05-08 10:38 | 44.63721 | -67.61653 | 38783 ft | 541 kts | 51° |
| 2026-05-08 10:38 | 44.68478 | -67.53461 | 38782 ft | 541 kts | 51° |
| 2026-05-08 10:39 | 44.73225 | -67.45261 | 38792 ft | 540 kts | 51° |
| 2026-05-08 10:39 | 44.77966 | -67.37051 | 38783 ft | 539 kts | 51° |
| 2026-05-08 10:40 | 44.82682 | -67.28860 | 38782 ft | 539 kts | 51° |
| 2026-05-08 10:40 | 44.87405 | -67.20634 | 38782 ft | 539 kts | 51° |
| 2026-05-08 10:41 | 44.91834 | -67.12147 | 38778 ft | 538 kts | 57° |
| 2026-05-08 10:41 | 44.95981 | -67.03346 | 38775 ft | 538 kts | 58° |
| 2026-05-08 10:42 | 45.00045 | -66.94500 | 38773 ft | 538 kts | 58° |
| 2026-05-08 10:42 | 45.03421 | -66.87115 | 38762 ft | 537 kts | 58° |